Time;durP1;ratioP1;P1;durP2;ratioP2;P2;SDS_P1;SDS_P2;PMS_P1;PMS_P2;Temp;Humidity;BMP_temperature;BMP_pressure;BME280_temperature;BME280_humidity;BME280_pressure;Samples;Min_cycle;Max_cycle;Signal;HPM_P1;HPM_P2
2022/09/01 00:01:19;;;;;;;5.30;1.42;;;17.90;99.90;;;;;;5051908;28;20177;-55
2022/09/01 00:03:47;;;;;;;5.97;1.35;;;17.80;99.90;;;;;;5051736;28;20176;-55
2022/09/01 00:06:14;;;;;;;6.78;1.50;;;17.80;99.90;;;;;;5052049;28;20223;-55
2022/09/01 00:08:40;;;;;;;3.75;1.40;;;17.80;99.90;;;;;;5052019;28;20173;-54
2022/09/01 00:11:06;;;;;;;6.75;1.50;;;17.80;99.90;;;;;;5051767;28;20281;-54
2022/09/01 00:13:32;;;;;;;5.15;1.58;;;17.80;99.90;;;;;;5051670;28;20774;-54
2022/09/01 00:16:00;;;;;;;4.07;1.50;;;17.70;99.90;;;;;;5051684;28;20204;-54
2022/09/01 00:18:26;;;;;;;7.18;1.38;;;17.70;99.90;;;;;;5051559;28;20539;-54
2022/09/01 00:20:51;;;;;;;8.38;1.45;;;17.60;99.90;;;;;;5050279;28;20173;-55
2022/09/01 00:23:17;;;;;;;7.55;1.55;;;17.60;99.90;;;;;;5051717;28;20177;-55
2022/09/01 00:25:43;;;;;;;4.80;1.38;;;17.60;99.90;;;;;;5051488;28;20597;-55
2022/09/01 00:28:08;;;;;;;8.15;1.35;;;17.50;99.90;;;;;;5051463;28;20222;-55
2022/09/01 00:30:35;;;;;;;6.57;1.27;;;17.50;99.90;;;;;;5051420;28;20216;-54
2022/09/01 00:33:01;;;;;;;5.70;1.58;;;17.50;99.90;;;;;;5051344;28;20177;-55
2022/09/01 00:35:26;;;;;;;5.45;1.42;;;17.50;99.90;;;;;;5051786;28;20177;-54
2022/09/01 00:37:52;;;;;;;6.53;1.30;;;17.40;99.90;;;;;;5051127;28;20220;-53
2022/09/01 00:40:19;;;;;;;10.73;1.48;;;17.40;99.90;;;;;;5051305;28;20169;-55
2022/09/01 00:42:47;;;;;;;3.60;1.38;;;17.40;99.90;;;;;;5051081;28;20670;-55
2022/09/01 00:45:13;;;;;;;6.43;1.48;;;17.30;99.90;;;;;;5051032;28;20181;-55
2022/09/01 00:47:40;;;;;;;5.18;1.40;;;17.30;99.90;;;;;;5051229;28;20227;-55
2022/09/01 00:50:07;;;;;;;7.95;1.30;;;17.30;99.90;;;;;;5050980;28;20626;-55
2022/09/01 00:52:39;;;;;;;10.75;1.50;;;17.30;99.90;;;;;;5051165;28;20181;-55
2022/09/01 00:55:13;;;;;;;6.22;1.30;;;17.30;99.90;;;;;;5051250;28;20179;-55
2022/09/01 00:57:40;;;;;;;6.63;1.38;;;17.20;99.90;;;;;;5051140;28;20532;-55
2022/09/01 01:00:17;;;;;;;7.07;1.70;;;17.20;99.90;;;;;;5051107;28;20674;-56
2022/09/01 01:02:43;;;;;;;5.95;1.58;;;17.20;99.90;;;;;;5051218;28;20235;-55
2022/09/01 01:05:11;;;;;;;6.53;1.33;;;17.20;99.90;;;;;;5051006;28;20256;-56
2022/09/01 01:07:42;;;;;;;9.00;1.33;;;17.20;99.90;;;;;;5051050;28;20173;-55
2022/09/01 01:10:10;;;;;;;7.55;1.58;;;17.10;99.90;;;;;;5050684;28;20303;-54
2022/09/01 01:12:39;;;;;;;6.97;1.70;;;17.10;99.90;;;;;;5050646;28;20239;-55
2022/09/01 01:15:10;;;;;;;4.55;1.73;;;17.10;99.90;;;;;;5051083;28;20204;-55
2022/09/01 01:17:35;;;;;;;5.10;1.40;;;17.10;99.90;;;;;;5050754;28;20172;-55
2022/09/01 01:23:14;;;;;;;4.95;1.40;;;17.00;99.90;;;;;;5050736;28;20172;-56
2022/09/01 01:25:41;;;;;;;6.63;1.35;;;17.00;99.90;;;;;;5050630;28;20169;-56
2022/09/01 01:28:30;;;;;;;4.35;1.30;;;16.90;99.90;;;;;;5050699;28;20187;-55
2022/09/01 01:31:00;;;;;;;4.32;1.52;;;16.80;99.90;;;;;;5050606;28;20354;-54
2022/09/01 01:33:40;;;;;;;5.47;1.63;;;16.80;99.90;;;;;;5050562;28;20178;-55
2022/09/01 01:36:09;;;;;;;4.43;1.33;;;16.80;99.90;;;;;;5050771;28;20180;-55
2022/09/01 01:38:35;;;;;;;7.50;1.70;;;16.80;99.90;;;;;;5050349;28;20710;-54
2022/09/01 01:41:02;;;;;;;7.88;1.35;;;16.80;99.90;;;;;;5050523;28;20710;-55
2022/09/01 01:43:27;;;;;;;8.75;1.63;;;16.80;99.90;;;;;;5050507;28;20176;-54
2022/09/01 01:45:57;;;;;;;4.35;1.38;;;16.80;99.90;;;;;;5050442;28;20177;-55
2022/09/01 01:48:23;;;;;;;8.75;1.50;;;16.80;99.90;;;;;;5050730;28;20185;-55
2022/09/01 01:50:51;;;;;;;6.00;1.67;;;16.70;99.90;;;;;;5050522;28;20209;-55
2022/09/01 01:53:18;;;;;;;5.38;1.48;;;16.70;99.90;;;;;;5050663;28;20161;-54
2022/09/01 01:55:44;;;;;;;5.78;1.40;;;16.70;99.90;;;;;;5051058;28;20176;-57
2022/09/01 01:58:14;;;;;;;4.95;1.60;;;16.70;99.90;;;;;;5054428;28;20231;-55
2022/09/01 02:00:43;;;;;;;9.00;1.95;;;16.70;99.90;;;;;;5054471;28;20235;-56
2022/09/01 02:03:11;;;;;;;7.80;1.67;;;16.60;99.90;;;;;;5054202;28;20169;-55
2022/09/01 02:05:38;;;;;;;5.07;1.17;;;16.70;99.90;;;;;;5054360;28;20256;-55
2022/09/01 02:08:09;;;;;;;4.32;1.85;;;16.50;99.90;;;;;;5052840;28;20172;-58
2022/09/01 02:10:42;;;;;;;5.68;1.55;;;16.50;99.90;;;;;;5054057;28;20207;-55
2022/09/01 02:13:14;;;;;;;7.63;1.58;;;16.50;99.90;;;;;;5054213;28;20177;-55
2022/09/01 02:15:44;;;;;;;5.22;1.40;;;16.50;99.90;;;;;;5054098;28;20181;-55
2022/09/01 02:18:17;;;;;;;3.25;1.55;;;16.40;99.90;;;;;;5053867;28;20566;-55
2022/09/01 02:20:46;;;;;;;6.93;1.58;;;16.40;99.90;;;;;;5053977;28;20173;-55
2022/09/01 02:23:14;;;;;;;4.18;1.45;;;16.40;99.90;;;;;;5053804;28;20173;-54
2022/09/01 02:25:43;;;;;;;5.03;1.33;;;16.40;99.90;;;;;;5054073;28;20177;-55
2022/09/01 02:28:14;;;;;;;6.60;2.42;;;16.30;99.90;;;;;;5053979;28;20188;-55
2022/09/01 02:30:42;;;;;;;6.20;1.25;;;16.30;99.90;;;;;;5053627;28;20250;-55
2022/09/01 02:33:08;;;;;;;6.47;1.90;;;16.30;99.90;;;;;;5052591;28;20264;-55
2022/09/01 02:35:36;;;;;;;7.35;1.90;;;16.20;99.90;;;;;;5053609;28;20208;-54
2022/09/01 02:38:03;;;;;;;4.60;1.70;;;16.20;99.90;;;;;;5053453;28;20692;-55
2022/09/01 02:40:31;;;;;;;7.05;1.70;;;16.20;99.90;;;;;;5053731;28;20675;-55
2022/09/01 02:42:59;;;;;;;6.53;1.45;;;16.30;99.90;;;;;;5053656;28;20178;-55
2022/09/01 02:45:28;;;;;;;6.45;1.60;;;16.30;99.90;;;;;;5053524;28;20228;-55
2022/09/01 02:47:56;;;;;;;5.15;1.70;;;16.30;99.90;;;;;;5053430;28;20227;-54
2022/09/01 02:50:24;;;;;;;5.93;1.65;;;16.30;99.90;;;;;;5053292;28;20290;-55
2022/09/01 02:52:53;;;;;;;6.95;1.65;;;16.30;99.90;;;;;;5053518;28;20188;-56
2022/09/01 02:55:21;;;;;;;6.13;1.25;;;16.30;99.90;;;;;;5053337;28;20176;-56
2022/09/01 02:57:54;;;;;;;8.48;1.80;;;16.40;99.90;;;;;;5053263;28;20260;-54
2022/09/01 03:00:27;;;;;;;9.43;1.75;;;16.40;99.90;;;;;;5053191;28;20544;-54
2022/09/01 03:02:55;;;;;;;5.82;1.50;;;16.40;99.90;;;;;;5053022;28;20181;-54
2022/09/01 03:05:28;;;;;;;7.93;1.90;;;16.50;99.90;;;;;;5053414;28;20648;-55
2022/09/01 03:07:56;;;;;;;5.90;1.70;;;16.50;99.90;;;;;;5052834;28;20232;-54
2022/09/01 03:10:35;;;;;;;4.22;1.33;;;16.50;99.90;;;;;;5053013;28;20213;-55
2022/09/01 03:13:26;;;;;;;6.78;1.92;;;16.50;99.90;;;;;;5052907;28;20181;-55
2022/09/01 03:15:51;;;;;;;8.77;1.77;;;16.50;99.90;;;;;;5052587;28;20188;-55
2022/09/01 03:18:17;;;;;;;6.07;1.77;;;16.50;99.90;;;;;;5052826;28;20174;-55
2022/09/01 03:20:45;;;;;;;6.07;1.38;;;16.50;99.90;;;;;;5052865;28;20173;-55
2022/09/01 03:23:13;;;;;;;8.07;1.73;;;16.40;99.90;;;;;;5052791;28;20181;-55
2022/09/01 03:25:41;;;;;;;5.70;1.50;;;16.40;99.90;;;;;;5052707;28;20254;-55
2022/09/01 03:28:08;;;;;;;7.65;1.52;;;16.40;99.90;;;;;;5052778;28;20201;-55
2022/09/01 03:30:38;;;;;;;8.07;1.80;;;16.40;99.90;;;;;;5052617;28;20259;-54
2022/09/01 03:33:06;;;;;;;7.15;1.80;;;16.40;99.90;;;;;;5052590;28;20265;-55
2022/09/01 03:35:32;;;;;;;6.20;2.03;;;16.30;99.90;;;;;;5052602;28;20181;-55
2022/09/01 03:38:00;;;;;;;4.55;1.60;;;16.30;99.90;;;;;;5052415;28;20216;-55
2022/09/01 03:40:31;;;;;;;8.18;1.50;;;16.30;99.90;;;;;;5052410;28;20715;-54
2022/09/01 03:43:02;;;;;;;3.60;1.50;;;16.30;99.90;;;;;;5052557;28;20177;-54
2022/09/01 03:45:28;;;;;;;7.03;1.85;;;16.30;99.90;;;;;;5052408;28;20565;-55
2022/09/01 03:47:55;;;;;;;7.65;1.77;;;16.30;99.90;;;;;;5052392;28;20169;-55
2022/09/01 03:50:23;;;;;;;7.82;1.70;;;16.40;99.90;;;;;;5052298;28;20706;-56
2022/09/01 03:52:54;;;;;;;5.20;1.50;;;16.40;99.90;;;;;;5052136;28;20180;-54
2022/09/01 03:55:26;;;;;;;4.88;1.40;;;16.50;99.90;;;;;;5052220;28;20169;-54
2022/09/01 03:58:05;;;;;;;6.35;1.70;;;16.50;99.90;;;;;;5052141;28;20180;-55
2022/09/01 04:00:36;;;;;;;6.93;1.60;;;16.50;99.90;;;;;;5051997;28;20177;-54
2022/09/01 04:03:04;;;;;;;6.47;1.60;;;16.50;99.90;;;;;;5051920;28;20315;-54
2022/09/01 04:05:32;;;;;;;5.05;1.80;;;16.50;99.90;;;;;;5052233;28;20945;-54
2022/09/01 04:08:02;;;;;;;7.65;2.22;;;16.50;99.90;;;;;;5052168;28;20272;-54
2022/09/01 04:10:31;;;;;;;5.93;1.60;;;16.50;99.90;;;;;;5051766;28;20216;-54
2022/09/01 04:12:58;;;;;;;4.32;1.67;;;16.50;99.90;;;;;;5050616;28;20311;-55
2022/09/01 04:15:25;;;;;;;8.15;1.98;;;16.50;99.90;;;;;;5051900;28;20178;-55
2022/09/01 04:18:08;;;;;;;5.13;1.67;;;16.50;99.90;;;;;;5051772;28;20176;-54
2022/09/01 04:20:46;;;;;;;7.28;1.45;;;16.50;99.90;;;;;;5051438;28;20172;-55
2022/09/01 04:23:20;;;;;;;7.85;1.80;;;16.50;99.90;;;;;;5051706;28;20246;-55
2022/09/01 04:25:52;;;;;;;6.75;1.88;;;16.60;99.90;;;;;;5051475;28;20281;-55
2022/09/01 04:28:23;;;;;;;4.65;1.63;;;16.60;99.90;;;;;;5051497;28;20193;-55
2022/09/01 04:30:57;;;;;;;5.90;1.80;;;16.50;99.90;;;;;;5051706;28;20213;-55
2022/09/01 04:33:35;;;;;;;8.32;2.00;;;16.60;99.90;;;;;;5051582;28;20169;-56
2022/09/01 04:36:02;;;;;;;4.63;1.52;;;16.60;99.90;;;;;;5051515;28;20173;-56
2022/09/01 04:38:29;;;;;;;6.35;1.52;;;16.60;99.90;;;;;;5051276;28;20241;-54
2022/09/01 04:40:56;;;;;;;6.05;1.85;;;16.60;99.90;;;;;;5051332;28;20709;-55
2022/09/01 04:43:23;;;;;;;4.57;1.90;;;16.60;99.90;;;;;;5051294;28;20165;-55
2022/09/01 04:45:50;;;;;;;11.10;2.20;;;16.50;99.90;;;;;;5051089;28;20173;-55
2022/09/01 04:48:18;;;;;;;5.95;1.63;;;16.60;99.90;;;;;;5051310;28;20189;-55
2022/09/01 04:50:44;;;;;;;6.78;1.60;;;16.50;99.90;;;;;;5049724;28;20614;-54
2022/09/01 04:53:11;;;;;;;8.15;1.75;;;16.50;99.90;;;;;;5051175;28;20166;-55
2022/09/01 04:55:40;;;;;;;7.43;1.85;;;16.50;99.90;;;;;;5051414;28;20181;-55
2022/09/01 04:58:05;;;;;;;8.77;1.98;;;16.50;99.90;;;;;;5051179;28;20169;-54
2022/09/01 05:00:31;;;;;;;8.45;2.40;;;16.60;99.90;;;;;;5051252;28;20518;-55
2022/09/01 05:03:03;;;;;;;5.00;1.80;;;16.60;99.90;;;;;;5051051;28;20678;-56
2022/09/01 05:05:42;;;;;;;7.38;2.70;;;16.60;99.90;;;;;;5050899;28;20759;-55
2022/09/01 05:08:12;;;;;;;9.07;2.03;;;16.60;99.90;;;;;;5051345;28;20177;-55
2022/09/01 05:10:41;;;;;;;6.97;1.98;;;16.60;99.90;;;;;;5051157;28;20204;-54
2022/09/01 05:13:09;;;;;;;8.18;2.03;;;16.60;99.90;;;;;;5050759;28;20214;-55
2022/09/01 05:15:46;;;;;;;10.48;2.00;;;16.60;99.90;;;;;;5050738;28;20239;-55
2022/09/01 05:18:22;;;;;;;8.82;2.30;;;16.60;99.90;;;;;;5050772;28;20169;-55
2022/09/01 05:20:51;;;;;;;7.50;2.00;;;16.50;99.90;;;;;;5051047;28;20188;-55
2022/09/01 05:23:18;;;;;;;8.48;2.05;;;16.50;99.90;;;;;;5050976;28;20473;-54
2022/09/01 05:25:48;;;;;;;8.48;2.33;;;16.50;99.90;;;;;;5050694;28;20181;-54
2022/09/01 05:28:16;;;;;;;6.55;2.13;;;16.50;99.90;;;;;;5050763;28;20177;-54
2022/09/01 05:30:44;;;;;;;6.85;2.10;;;16.50;99.90;;;;;;5051045;28;20219;-55
2022/09/01 05:33:11;;;;;;;4.28;2.22;;;16.40;99.90;;;;;;5054824;28;20169;-55
2022/09/01 05:35:43;;;;;;;5.97;2.08;;;16.50;99.90;;;;;;5054731;28;20250;-55
2022/09/01 05:38:11;;;;;;;14.57;2.15;;;16.50;99.90;;;;;;5054611;28;20221;-54
2022/09/01 05:40:39;;;;;;;9.27;2.20;;;16.50;99.90;;;;;;5054783;28;20203;-55
2022/09/01 05:43:06;;;;;;;14.02;2.33;;;16.50;99.90;;;;;;5054541;28;20169;-54
2022/09/01 05:45:35;;;;;;;14.00;2.30;;;16.50;99.90;;;;;;5054609;28;20177;-55
2022/09/01 05:48:02;;;;;;;7.00;1.77;;;16.50;99.90;;;;;;5054598;28;20624;-55
2022/09/01 05:50:28;;;;;;;14.65;2.58;;;16.60;99.90;;;;;;5054535;28;20212;-55
2022/09/01 05:52:54;;;;;;;8.05;2.55;;;16.60;99.90;;;;;;5054458;28;20575;-56
2022/09/01 05:55:21;;;;;;;9.63;2.60;;;16.60;99.90;;;;;;5054383;28;20280;-55
2022/09/01 05:57:47;;;;;;;10.35;2.40;;;16.60;99.90;;;;;;5054336;28;20173;-55
2022/09/01 06:00:16;;;;;;;10.77;2.33;;;16.60;99.90;;;;;;5054336;28;20169;-54
2022/09/01 06:02:43;;;;;;;7.65;2.08;;;16.70;99.90;;;;;;5054416;28;20256;-55
2022/09/01 06:05:09;;;;;;;6.97;2.60;;;16.60;99.90;;;;;;5054332;28;20235;-56
2022/09/01 06:07:41;;;;;;;11.18;2.60;;;16.70;99.90;;;;;;5054386;28;20173;-54
2022/09/01 06:10:08;;;;;;;5.55;2.42;;;16.70;99.90;;;;;;5054000;28;20213;-54
2022/09/01 06:12:33;;;;;;;12.00;2.45;;;16.70;99.90;;;;;;5054153;28;20185;-55
2022/09/01 06:15:00;;;;;;;11.68;2.45;;;16.70;99.90;;;;;;5053923;28;20173;-55
2022/09/01 06:17:27;;;;;;;9.50;2.40;;;16.70;99.90;;;;;;5054176;28;20170;-54
2022/09/01 06:19:57;;;;;;;7.70;2.58;;;16.70;99.90;;;;;;5053892;28;20670;-55
2022/09/01 06:22:25;;;;;;;12.90;2.55;;;16.80;99.90;;;;;;5053805;28;20181;-54
2022/09/01 06:24:53;;;;;;;11.93;3.15;;;16.80;99.90;;;;;;5053749;28;20169;-55
2022/09/01 06:27:20;;;;;;;8.57;2.92;;;16.80;99.90;;;;;;5053828;28;20985;-54
2022/09/01 06:29:50;;;;;;;9.70;2.85;;;16.70;99.90;;;;;;5053646;28;20679;-56
2022/09/01 06:32:16;;;;;;;13.60;3.17;;;16.70;99.90;;;;;;5053743;28;20633;-55
2022/09/01 06:34:49;;;;;;;8.27;2.90;;;16.70;99.90;;;;;;5053812;28;20208;-55
2022/09/01 06:37:15;;;;;;;13.73;2.72;;;16.70;99.90;;;;;;5053508;28;20171;-55
2022/09/01 06:39:40;;;;;;;8.63;2.47;;;16.80;99.90;;;;;;5053614;28;20189;-55
2022/09/01 06:42:08;;;;;;;8.70;2.85;;;16.80;99.90;;;;;;5053164;28;20165;-55
2022/09/01 06:44:34;;;;;;;9.45;2.30;;;16.80;99.90;;;;;;5053629;28;20259;-55
2022/09/01 06:47:00;;;;;;;12.27;2.90;;;16.90;99.90;;;;;;5053589;28;20177;-56
2022/09/01 06:49:31;;;;;;;9.32;2.50;;;16.90;99.90;;;;;;5053436;28;20193;-55
2022/09/01 06:52:01;;;;;;;13.57;3.05;;;17.00;99.90;;;;;;5053374;28;20181;-55
2022/09/01 06:54:32;;;;;;;4.50;2.10;;;17.00;99.90;;;;;;5053619;28;20173;-56
2022/09/01 06:56:59;;;;;;;8.10;2.83;;;17.00;99.90;;;;;;5053413;28;20200;-54
2022/09/01 06:59:30;;;;;;;7.43;2.30;;;17.00;99.90;;;;;;5053279;28;20169;-55
2022/09/01 07:01:58;;;;;;;8.40;2.30;;;17.00;99.90;;;;;;5053152;28;20169;-55
2022/09/01 07:04:28;;;;;;;13.15;2.75;;;17.10;99.90;;;;;;5053107;28;20509;-54
2022/09/01 07:06:55;;;;;;;11.50;2.63;;;17.10;99.90;;;;;;5052991;28;20233;-55
2022/09/01 07:09:22;;;;;;;16.23;2.60;;;17.10;99.90;;;;;;5052837;28;20170;-54
2022/09/01 07:11:48;;;;;;;10.00;2.78;;;17.10;99.90;;;;;;5052977;28;20640;-55
2022/09/01 07:14:15;;;;;;;10.05;2.53;;;17.20;99.90;;;;;;5052947;28;20196;-54
2022/09/01 07:16:43;;;;;;;10.18;2.47;;;17.30;99.90;;;;;;5052894;28;20177;-55
2022/09/01 07:19:13;;;;;;;8.10;2.38;;;17.30;99.90;;;;;;5052617;28;20204;-54
2022/09/01 07:21:41;;;;;;;6.78;2.42;;;17.40;99.90;;;;;;5052750;28;20489;-54
2022/09/01 07:24:07;;;;;;;9.40;2.22;;;17.40;99.90;;;;;;5052780;28;20175;-54
2022/09/01 07:26:34;;;;;;;15.90;3.00;;;17.50;99.90;;;;;;5052652;28;20671;-54
2022/09/01 07:29:02;;;;;;;11.07;2.47;;;17.50;99.90;;;;;;5052656;28;20181;-55
2022/09/01 07:31:37;;;;;;;13.10;3.03;;;17.40;99.90;;;;;;5052427;28;20236;-54
2022/09/01 07:34:05;;;;;;;19.17;2.65;;;17.50;99.90;;;;;;5052388;28;20169;-55
2022/09/01 07:36:31;;;;;;;13.65;2.70;;;17.50;99.90;;;;;;5052446;28;20700;-54
2022/09/01 07:39:00;;;;;;;12.00;2.40;;;17.40;99.90;;;;;;5052415;28;20217;-55
2022/09/01 07:41:27;;;;;;;12.68;2.35;;;17.50;99.90;;;;;;5052245;28;20248;-55
2022/09/01 07:43:55;;;;;;;17.02;2.78;;;17.60;99.90;;;;;;5052766;28;20177;-55
2022/09/01 07:46:22;;;;;;;12.43;2.92;;;17.60;99.90;;;;;;5052392;28;20257;-55
2022/09/01 07:48:49;;;;;;;9.00;2.38;;;17.60;99.90;;;;;;5052394;28;20196;-55
2022/09/01 07:51:20;;;;;;;14.63;2.40;;;17.60;99.90;;;;;;5052196;28;20212;-56
2022/09/01 07:53:49;;;;;;;7.30;2.15;;;17.60;99.90;;;;;;5051298;28;20176;-55
2022/09/01 07:56:17;;;;;;;16.83;2.90;;;17.70;99.90;;;;;;5052162;28;20169;-56
2022/09/01 07:58:44;;;;;;;18.92;2.80;;;17.70;99.90;;;;;;5051748;28;20177;-55
2022/09/01 08:01:17;;;;;;;11.30;2.63;;;17.80;99.90;;;;;;5051967;28;20260;-55
2022/09/01 08:03:48;;;;;;;10.15;2.28;;;17.80;99.90;;;;;;5052280;28;20185;-55
2022/09/01 08:06:18;;;;;;;12.63;2.72;;;17.90;99.90;;;;;;5051942;28;20182;-55
2022/09/01 08:08:44;;;;;;;10.38;2.47;;;18.10;99.90;;;;;;5051849;28;20177;-55
2022/09/01 08:11:20;;;;;;;11.73;2.40;;;18.10;99.90;;;;;;5051769;28;20200;-55
2022/09/01 08:13:46;;;;;;;11.00;2.35;;;18.20;99.90;;;;;;5052033;28;20191;-55
2022/09/01 08:16:13;;;;;;;10.25;2.45;;;18.30;99.90;;;;;;5051770;28;20177;-55
2022/09/01 08:18:39;;;;;;;9.73;2.67;;;18.40;99.90;;;;;;5051593;28;20183;-55
2022/09/01 08:21:10;;;;;;;13.15;2.40;;;18.50;99.90;;;;;;5051713;28;20177;-56
2022/09/01 08:23:36;;;;;;;10.48;1.90;;;18.70;99.90;;;;;;5051695;28;20173;-55
2022/09/01 08:26:12;;;;;;;11.13;2.70;;;18.80;99.90;;;;;;5051444;28;20177;-54
2022/09/01 08:28:38;;;;;;;17.52;2.85;;;19.00;99.90;;;;;;5051565;28;20172;-55
2022/09/01 08:31:09;;;;;;;9.38;2.20;;;19.10;99.90;;;;;;5051450;28;20212;-55
2022/09/01 08:33:36;;;;;;;11.77;2.42;;;19.20;99.90;;;;;;5051570;28;20235;-56
2022/09/01 08:36:03;;;;;;;19.38;2.53;;;19.30;99.90;;;;;;5051289;28;20259;-56
2022/09/01 08:38:29;;;;;;;9.60;2.05;;;19.30;99.90;;;;;;5051220;28;20220;-55
2022/09/01 08:40:57;;;;;;;15.00;2.65;;;19.40;99.90;;;;;;5051312;28;20697;-56
2022/09/01 08:43:53;;;;;;;6.38;1.77;;;19.50;99.90;;;;;;5051143;28;20201;-55
2022/09/01 08:46:25;;;;;;;14.90;2.60;;;19.60;99.90;;;;;;5050841;28;20183;-55
2022/09/01 08:48:57;;;;;;;10.75;2.20;;;19.70;99.90;;;;;;5051109;28;20208;-55
2022/09/01 08:51:35;;;;;;;10.95;2.50;;;19.70;99.90;;;;;;5051208;28;20300;-56
2022/09/01 08:54:20;;;;;;;11.20;2.85;;;19.70;99.90;;;;;;5051519;28;20170;-55
2022/09/01 08:56:47;;;;;;;11.48;1.95;;;19.80;99.90;;;;;;5051149;28;20230;-56
2022/09/01 08:59:14;;;;;;;11.40;2.25;;;19.90;99.90;;;;;;5051134;28;20185;-56
2022/09/01 09:01:55;;;;;;;11.68;2.35;;;20.00;99.90;;;;;;5051257;28;20173;-56
2022/09/01 09:04:34;;;;;;;20.50;2.80;;;20.10;99.90;;;;;;5051046;28;20184;-56
2022/09/01 09:07:38;;;;;;;10.60;2.13;;;20.10;99.90;;;;;;5050944;28;20185;-55
2022/09/01 09:10:57;;;;;;;10.45;2.00;;;20.10;99.90;;;;;;5050893;28;20205;-56
2022/09/01 09:13:44;;;;;;;14.75;2.30;;;20.00;99.90;;;;;;5047967;28;20173;-55
2022/09/01 09:16:30;;;;;;;11.43;2.28;;;20.10;99.90;;;;;;5050772;28;20484;-55
2022/09/01 09:19:02;;;;;;;9.32;1.52;;;20.20;99.90;;;;;;5050692;28;20179;-55
2022/09/01 09:21:37;;;;;;;6.43;1.88;;;20.40;99.90;;;;;;5050926;28;20177;-56
2022/09/01 09:24:14;;;;;;;12.68;2.05;;;20.50;99.90;;;;;;5050764;28;20169;-55
2022/09/01 09:26:39;;;;;;;10.05;2.30;;;20.50;99.90;;;;;;5050708;28;20171;-55
2022/09/01 09:29:05;;;;;;;6.93;1.98;;;20.50;99.90;;;;;;5050723;28;20265;-56
2022/09/01 09:31:44;;;;;;;7.25;2.00;;;20.60;99.90;;;;;;5050660;28;20251;-56
2022/09/01 09:34:36;;;;;;;10.43;2.20;;;20.70;99.90;;;;;;5050517;28;20176;-56
2022/09/01 09:37:23;;;;;;;9.27;1.92;;;20.60;99.90;;;;;;5050238;28;20215;-56
2022/09/01 09:40:06;;;;;;;107.13;9.63;;;20.80;99.90;;;;;;5050578;28;20189;-56
2022/09/01 09:42:33;;;;;;;10.60;1.88;;;21.10;99.90;;;;;;5050503;28;20193;-56
2022/09/01 09:44:59;;;;;;;10.07;1.80;;;21.20;99.90;;;;;;5050347;28;20177;-56
2022/09/01 09:47:39;;;;;;;12.23;2.03;;;21.40;99.90;;;;;;5050452;28;20169;-56
2022/09/01 09:50:17;;;;;;;12.18;1.83;;;21.50;99.90;;;;;;5050310;28;20683;-55
2022/09/01 09:52:45;;;;;;;8.35;1.90;;;21.70;99.90;;;;;;5050430;28;20705;-56
2022/09/01 09:55:17;;;;;;;8.00;1.90;;;21.90;99.90;;;;;;5050471;28;20252;-55
2022/09/01 09:57:44;;;;;;;12.90;2.28;;;22.10;99.90;;;;;;5050433;28;20177;-55
2022/09/01 10:00:24;;;;;;;11.35;1.63;;;22.50;99.90;;;;;;5050435;28;20675;-56
2022/09/01 10:03:03;;;;;;;12.25;1.70;;;22.60;99.90;;;;;;5050368;28;20201;-56
2022/09/01 10:05:32;;;;;;;10.27;2.30;;;22.80;99.90;;;;;;5050347;28;20177;-56
2022/09/01 10:07:58;;;;;;;14.82;1.92;;;23.00;99.90;;;;;;5050192;28;20170;-57
2022/09/01 10:10:49;;;;;;;8.57;2.10;;;23.30;99.90;;;;;;5050284;28;20216;-57
2022/09/01 10:13:27;;;;;;;9.55;1.92;;;23.30;99.90;;;;;;5050220;28;20181;-56
2022/09/01 10:15:55;;;;;;;10.52;1.90;;;23.70;99.90;;;;;;5050256;28;20180;-56
2022/09/01 10:18:25;;;;;;;10.82;1.95;;;24.10;99.90;;;;;;5053189;28;20654;-56
2022/09/01 10:21:07;;;;;;;7.32;1.88;;;24.30;99.90;;;;;;5054082;28;20533;-56
2022/09/01 10:23:35;;;;;;;4.82;1.73;;;23.90;99.90;;;;;;5053908;28;20204;-56
2022/09/01 10:26:10;;;;;;;10.05;1.25;;;23.90;99.90;;;;;;5053994;28;20650;-56
2022/09/01 10:28:45;;;;;;;8.75;1.67;;;24.90;99.90;;;;;;5053716;28;20168;-57
2022/09/01 10:31:10;;;;;;;6.32;1.80;;;26.10;99.90;;;;;;5053762;28;20697;-56
2022/09/01 10:33:36;;;;;;;5.45;1.35;;;26.80;99.90;;;;;;5053697;28;20173;-56
2022/09/01 10:36:05;;;;;;;8.20;1.83;;;27.30;99.90;;;;;;5053712;28;20607;-54
2022/09/01 10:38:31;;;;;;;4.13;1.70;;;28.10;99.90;;;;;;5053367;28;20220;-57
2022/09/01 10:41:07;;;;;;;9.00;2.00;;;28.60;99.90;;;;;;5053551;28;20438;-57
2022/09/01 10:43:41;;;;;;;7.00;2.05;;;28.20;99.90;;;;;;5052236;28;20738;-56
2022/09/01 10:46:08;;;;;;;7.50;2.28;;;27.90;99.90;;;;;;5053412;28;20620;-56
2022/09/01 10:48:37;;;;;;;10.15;2.20;;;27.40;99.90;;;;;;5053310;28;20169;-56
2022/09/01 10:51:11;;;;;;;8.60;1.77;;;27.10;99.90;;;;;;5053259;28;20216;-55
2022/09/01 10:53:40;;;;;;;5.38;1.33;;;26.40;99.90;;;;;;5053377;28;20187;-56
2022/09/01 10:56:20;;;;;;;7.47;1.50;;;26.10;99.90;;;;;;5051945;28;20562;-55
2022/09/01 10:59:23;;;;;;;6.32;1.55;;;25.90;99.90;;;;;;5053118;28;20172;-57
2022/09/01 11:01:48;;;;;;;11.57;1.60;;;26.00;99.90;;;;;;5053092;28;20165;-55
2022/09/01 11:04:17;;;;;;;9.20;1.67;;;25.90;99.90;;;;;;5053010;28;20247;-56
2022/09/01 11:07:03;;;;;;;8.43;1.90;;;25.70;99.90;;;;;;5053299;28;20224;-56
2022/09/01 11:09:44;;;;;;;10.65;1.60;;;26.20;99.90;;;;;;5052930;28;20243;-57
2022/09/01 11:12:17;;;;;;;7.47;1.42;;;26.10;99.90;;;;;;5053124;28;20252;-56
2022/09/01 11:14:56;;;;;;;5.88;1.65;;;26.00;99.90;;;;;;5053145;28;20260;-56
2022/09/01 11:17:36;;;;;;;9.10;1.60;;;26.90;99.90;;;;;;5052656;28;20193;-56
2022/09/01 11:20:19;;;;;;;6.75;1.92;;;27.50;99.90;;;;;;5052454;28;20161;-56
2022/09/01 11:23:04;;;;;;;2.88;1.27;;;27.80;99.90;;;;;;5052736;28;20187;-55
2022/09/01 11:25:35;;;;;;;9.85;1.35;;;27.50;99.90;;;;;;5052687;28;20181;-56
2022/09/01 11:28:01;;;;;;;6.03;1.40;;;27.30;99.90;;;;;;5051937;28;20204;-56
2022/09/01 11:30:30;;;;;;;5.05;1.52;;;26.90;99.90;;;;;;5052014;28;20201;-56
2022/09/01 11:33:15;;;;;;;6.93;1.83;;;26.60;99.90;;;;;;5052674;28;20628;-56
2022/09/01 11:35:44;;;;;;;13.48;1.70;;;26.20;99.90;;;;;;5021155;28;20242;-54
2022/09/01 11:38:13;;;;;;;9.88;1.63;;;26.30;99.90;;;;;;5052347;28;20683;-56
2022/09/01 11:40:40;;;;;;;7.30;1.63;;;26.70;99.90;;;;;;5052587;28;20188;-56
2022/09/01 11:43:16;;;;;;;9.05;1.83;;;27.20;99.90;;;;;;5050924;28;20181;-56
2022/09/01 11:46:12;;;;;;;6.88;1.80;;;27.30;99.90;;;;;;5052298;28;20172;-57
2022/09/01 11:48:38;;;;;;;11.55;1.73;;;27.10;99.90;;;;;;5052289;28;20219;-56
2022/09/01 11:51:04;;;;;;;9.20;1.42;;;27.90;99.90;;;;;;5051959;28;20236;-57
2022/09/01 11:53:30;;;;;;;6.50;1.35;;;29.20;99.90;;;;;;5052152;28;20631;-56
2022/09/01 11:56:24;;;;;;;4.95;1.75;;;29.40;99.90;;;;;;5052293;28;20173;-56
2022/09/01 11:58:49;;;;;;;6.95;1.90;;;29.60;99.90;;;;;;5052070;28;20203;-56
2022/09/01 12:01:36;;;;;;;7.13;2.10;;;31.10;99.90;;;;;;5052094;28;20695;-56
2022/09/01 12:04:26;;;;;;;7.22;1.45;;;31.40;99.90;;;;;;5052161;28;20165;-56
2022/09/01 12:06:58;;;;;;;6.00;1.55;;;31.60;99.90;;;;;;5051975;28;20197;-56
2022/09/01 12:09:37;;;;;;;6.13;1.42;;;31.40;99.90;;;;;;5051860;28;20165;-57
2022/09/01 12:12:05;;;;;;;7.50;1.63;;;30.50;99.90;;;;;;5051951;28;20264;-57
2022/09/01 12:14:31;;;;;;;5.88;1.75;;;29.90;99.90;;;;;;5051752;28;20174;-57
2022/09/01 12:17:01;;;;;;;11.95;1.40;;;29.70;99.90;;;;;;5052215;28;20212;-57
2022/09/01 12:19:32;;;;;;;4.88;1.83;;;29.30;99.90;;;;;;5051878;28;20177;-57
2022/09/01 12:22:13;;;;;;;8.43;1.50;;;28.70;99.90;;;;;;5051640;28;20263;-57
2022/09/01 12:24:45;;;;;;;10.57;1.42;;;28.40;99.90;;;;;;5051507;28;20169;-57
2022/09/01 12:27:12;;;;;;;3.38;1.58;;;28.10;99.90;;;;;;5051557;28;20204;-56
2022/09/01 12:29:38;;;;;;;11.23;1.60;;;27.70;99.90;;;;;;5051438;28;20250;-57
2022/09/01 12:32:04;;;;;;;5.07;2.10;;;27.10;99.90;;;;;;5051307;28;20177;-57
2022/09/01 12:34:32;;;;;;;6.93;1.48;;;26.60;99.90;;;;;;5051481;28;20636;-57
2022/09/01 12:37:13;;;;;;;9.00;1.95;;;26.30;99.90;;;;;;5051510;28;20209;-56
2022/09/01 12:39:44;;;;;;;6.57;1.70;;;26.20;99.90;;;;;;5050962;28;20216;-56
2022/09/01 12:42:31;;;;;;;10.60;1.92;;;26.10;99.90;;;;;;5051598;28;20188;-56
2022/09/01 12:45:05;;;;;;;2.88;1.45;;;26.00;99.90;;;;;;5051383;28;20201;-56
2022/09/01 12:47:36;;;;;;;10.55;1.70;;;26.00;99.90;;;;;;5051093;28;20208;-55
2022/09/01 12:50:27;;;;;;;16.25;1.40;;;26.10;99.90;;;;;;5051171;28;20296;-55
2022/09/01 12:52:57;;;;;;;3.95;1.40;;;26.30;99.90;;;;;;5040097;28;20182;-56
2022/09/01 12:55:31;;;;;;;9.48;1.65;;;26.10;99.90;;;;;;5051207;28;20177;-56
2022/09/01 12:57:59;;;;;;;5.95;1.90;;;26.10;99.90;;;;;;5051012;28;20164;-56
2022/09/01 13:00:28;;;;;;;9.85;1.92;;;25.90;99.90;;;;;;5050941;28;20215;-55
2022/09/01 13:02:54;;;;;;;7.57;1.70;;;25.80;99.90;;;;;;5050859;28;20181;-55
2022/09/01 13:05:50;;;;;;;6.13;1.55;;;25.80;99.90;;;;;;5050970;28;20187;-56